Time;durP1;ratioP1;P1;durP2;ratioP2;P2;SDS_P1;SDS_P2;PMS_P1;PMS_P2;Temp;Humidity;BMP_temperature;BMP_pressure;BME280_temperature;BME280_humidity;BME280_pressure;Samples;Min_cycle;Max_cycle;Signal;HPM_P1;HPM_P2
2023/03/06 00:01:47;;;;;;;1.40;0.50;;;15.00;51.90;;;;;;6225952;23;20341;-70
2023/03/06 00:04:14;;;;;;;0.77;0.45;;;14.90;51.80;;;;;;6225986;23;20000;-70
2023/03/06 00:06:39;;;;;;;0.60;0.47;;;14.90;51.80;;;;;;6224418;23;19996;-70
2023/03/06 00:09:05;;;;;;;0.50;0.40;;;14.90;51.90;;;;;;6225895;23;19996;-70
2023/03/06 00:11:31;;;;;;;0.60;0.47;;;14.90;51.90;;;;;;6225765;23;20011;-70
2023/03/06 00:13:56;;;;;;;0.40;0.40;;;14.80;51.80;;;;;;6225768;23;20000;-70
2023/03/06 00:16:22;;;;;;;0.63;0.50;;;14.90;51.90;;;;;;6215716;23;20000;-70
2023/03/06 00:18:47;;;;;;;0.75;0.50;;;14.90;52.50;;;;;;6225771;23;20004;-70
2023/03/06 00:21:13;;;;;;;0.50;0.50;;;14.90;51.80;;;;;;6225556;23;20028;-70
2023/03/06 00:23:40;;;;;;;0.60;0.40;;;14.80;51.80;;;;;;6225738;23;20013;-70
2023/03/06 00:26:07;;;;;;;0.60;0.50;;;14.80;51.70;;;;;;6225776;23;20323;-70
2023/03/06 00:28:33;;;;;;;0.88;0.60;;;14.80;51.70;;;;;;6225769;23;20435;-70
2023/03/06 00:30:59;;;;;;;1.20;0.60;;;14.80;51.70;;;;;;6225565;23;19992;-70
2023/03/06 00:33:25;;;;;;;0.52;0.40;;;14.70;52.40;;;;;;6225659;23;20063;-70
2023/03/06 00:35:50;;;;;;;0.90;0.43;;;14.70;51.70;;;;;;6225591;23;20382;-70
2023/03/06 00:38:16;;;;;;;0.98;0.50;;;14.70;51.70;;;;;;6225793;23;20032;-70
2023/03/06 00:40:42;;;;;;;0.52;0.45;;;14.70;52.40;;;;;;6225564;23;20527;-70
2023/03/06 00:43:08;;;;;;;1.08;0.50;;;14.70;51.70;;;;;;6225514;23;20336;-70
2023/03/06 00:45:33;;;;;;;0.95;0.57;;;14.70;51.80;;;;;;6225507;23;19996;-70
2023/03/06 00:47:59;;;;;;;0.40;0.30;;;14.70;51.80;;;;;;6225421;23;19993;-70
2023/03/06 00:50:24;;;;;;;0.85;0.47;;;14.70;51.80;;;;;;6225465;23;20007;-70
2023/03/06 00:52:50;;;;;;;1.08;0.43;;;14.70;51.80;;;;;;6225239;23;20009;-70
2023/03/06 00:55:16;;;;;;;0.80;0.40;;;14.60;51.80;;;;;;6225487;23;19996;-70
2023/03/06 00:57:41;;;;;;;0.40;0.30;;;14.60;51.70;;;;;;6225573;23;20000;-70
2023/03/06 01:00:09;;;;;;;1.15;0.50;;;14.60;51.80;;;;;;6225245;23;19992;-70
2023/03/06 01:02:34;;;;;;;0.40;0.30;;;14.60;51.80;;;;;;6225275;23;20000;-70
2023/03/06 01:05:00;;;;;;;0.70;0.40;;;14.60;51.90;;;;;;6225223;23;20071;-70
2023/03/06 01:07:32;;;;;;;0.95;0.60;;;14.60;51.80;;;;;;6225291;23;20031;-70
2023/03/06 01:09:57;;;;;;;0.40;0.40;;;14.60;51.80;;;;;;6225224;23;19997;-70
2023/03/06 01:12:23;;;;;;;0.50;0.40;;;14.50;51.90;;;;;;6225069;23;20030;-70
2023/03/06 01:14:49;;;;;;;0.77;0.57;;;14.50;51.90;;;;;;6225220;23;19993;-72
2023/03/06 01:17:14;;;;;;;0.80;0.30;;;14.50;51.80;;;;;;6225121;23;20046;-71
2023/03/06 01:19:40;;;;;;;0.60;0.47;;;14.50;51.80;;;;;;6215161;23;19993;-72
2023/03/06 01:22:06;;;;;;;1.42;0.40;;;14.50;51.80;;;;;;6224665;23;20008;-72
2023/03/06 01:24:31;;;;;;;1.38;0.70;;;14.50;51.80;;;;;;6225849;23;20285;-72
2023/03/06 01:26:57;;;;;;;0.73;0.50;;;14.50;51.80;;;;;;6224966;23;20301;-72
2023/03/06 01:29:25;;;;;;;1.02;0.50;;;14.50;52.50;;;;;;6224579;23;19996;-72
2023/03/06 01:31:51;;;;;;;0.47;0.30;;;14.50;51.90;;;;;;6225070;23;20015;-72
2023/03/06 01:34:17;;;;;;;0.68;0.60;;;14.40;52.00;;;;;;6225001;23;20028;-72
2023/03/06 01:36:42;;;;;;;0.40;0.40;;;14.40;52.10;;;;;;6225104;23;20008;-72
2023/03/06 01:39:08;;;;;;;0.60;0.60;;;14.40;52.70;;;;;;6224875;23;19997;-72
2023/03/06 01:41:33;;;;;;;2.00;0.30;;;14.40;52.80;;;;;;6224950;23;20420;-73
2023/03/06 01:43:59;;;;;;;0.52;0.40;;;14.40;52.10;;;;;;6224838;23;20027;-72
2023/03/06 01:46:40;;;;;;;0.75;0.50;;;14.30;52.10;;;;;;6224905;23;20075;-72
2023/03/06 01:49:38;;;;;;;0.50;0.40;;;14.40;52.20;;;;;;6224962;23;20055;-72
2023/03/06 01:52:16;;;;;;;1.48;0.50;;;14.40;52.20;;;;;;6212785;23;20013;-72
2023/03/06 01:54:52;;;;;;;0.30;0.30;;;14.30;52.20;;;;;;6225276;23;20008;-72
2023/03/06 01:57:21;;;;;;;0.60;0.50;;;14.30;52.70;;;;;;6224753;23;19992;-72
2023/03/06 01:59:51;;;;;;;0.63;0.40;;;14.30;52.20;;;;;;6224846;23;20007;-72
2023/03/06 02:02:17;;;;;;;;;;;14.30;52.10;;;;;;6215140;23;20039;-72
2023/03/06 02:04:44;;;;;;;0.70;0.50;;;14.30;52.20;;;;;;6214834;23;19904;-72
2023/03/06 02:07:11;;;;;;;1.73;0.60;;;14.30;52.20;;;;;;6214610;23;20305;-72
2023/03/06 02:09:37;;;;;;;0.40;0.30;;;14.30;52.30;;;;;;6224754;23;20006;-73
2023/03/06 02:12:13;;;;;;;0.22;0.22;;;14.20;52.20;;;;;;6214819;23;20008;-72
2023/03/06 02:14:40;;;;;;;0.40;0.30;;;14.20;52.20;;;;;;6224653;23;20146;-72
2023/03/06 02:17:07;;;;;;;0.40;0.40;;;14.20;52.20;;;;;;6224438;23;19997;-72
2023/03/06 02:19:35;;;;;;;0.77;0.45;;;14.20;52.30;;;;;;6224631;23;20325;-73
2023/03/06 02:22:02;;;;;;;0.50;0.35;;;14.20;52.30;;;;;;6212644;23;20020;-72
2023/03/06 02:24:41;;;;;;;0.95;0.40;;;14.20;52.40;;;;;;6224480;23;19997;-72
2023/03/06 02:27:11;;;;;;;0.40;0.40;;;14.10;52.30;;;;;;6224534;23;20006;-72
2023/03/06 02:29:36;;;;;;;1.15;0.68;;;14.10;52.30;;;;;;6224603;23;20015;-72
2023/03/06 02:32:03;;;;;;;0.43;0.40;;;14.10;52.40;;;;;;6224466;23;20036;-73
2023/03/06 02:34:28;;;;;;;0.45;0.35;;;14.20;52.30;;;;;;6224539;23;20674;-73
2023/03/06 02:36:59;;;;;;;0.77;0.40;;;14.10;52.30;;;;;;6224593;23;20258;-72
2023/03/06 02:39:28;;;;;;;0.38;0.25;;;14.10;53.00;;;;;;6224396;23;20432;-73
2023/03/06 02:41:54;;;;;;;0.90;0.40;;;14.10;52.40;;;;;;6224503;23;20075;-72
2023/03/06 02:44:21;;;;;;;0.45;0.40;;;14.10;52.30;;;;;;6224377;23;20440;-72
2023/03/06 02:46:47;;;;;;;0.30;0.30;;;14.10;52.40;;;;;;6224495;23;20043;-73
2023/03/06 02:49:12;;;;;;;0.95;0.45;;;14.00;52.30;;;;;;6224355;23;20000;-72
2023/03/06 02:51:38;;;;;;;1.30;0.40;;;14.00;52.30;;;;;;6224217;23;20032;-72
2023/03/06 02:54:04;;;;;;;0.52;0.50;;;14.00;52.30;;;;;;6214268;23;19993;-72
2023/03/06 02:56:30;;;;;;;0.43;0.30;;;14.00;52.30;;;;;;6214586;23;20016;-72
2023/03/06 02:58:56;;;;;;;1.02;0.50;;;14.00;52.20;;;;;;6214237;23;19997;-72
2023/03/06 03:01:22;;;;;;;0.20;0.20;;;14.00;52.20;;;;;;6214473;23;20054;-73
2023/03/06 03:03:48;;;;;;;0.40;0.30;;;14.00;52.10;;;;;;6214578;23;19997;-73
2023/03/06 03:06:15;;;;;;;0.45;0.30;;;14.00;52.00;;;;;;6214232;23;20379;-72
2023/03/06 03:08:41;;;;;;;0.95;0.40;;;14.00;52.10;;;;;;6214532;23;20327;-72
2023/03/06 03:11:08;;;;;;;0.57;0.28;;;14.00;52.20;;;;;;6214210;23;20000;-72
2023/03/06 03:13:34;;;;;;;0.30;0.30;;;13.90;52.20;;;;;;6214227;23;20444;-72
2023/03/06 03:16:03;;;;;;;0.73;0.40;;;14.00;52.20;;;;;;6214217;23;20412;-72
2023/03/06 03:18:29;;;;;;;1.10;0.50;;;13.90;52.20;;;;;;6214519;23;20000;-72
2023/03/06 03:20:55;;;;;;;0.70;0.47;;;13.90;52.20;;;;;;6214224;23;19996;-73
2023/03/06 03:23:22;;;;;;;0.55;0.45;;;13.90;52.20;;;;;;6212836;23;20001;-72
2023/03/06 03:25:48;;;;;;;0.30;0.20;;;13.90;52.10;;;;;;6214460;23;20367;-70
2023/03/06 03:28:14;;;;;;;0.90;0.50;;;13.90;52.10;;;;;;6214528;23;19997;-70
2023/03/06 03:30:42;;;;;;;0.57;0.30;;;13.90;52.10;;;;;;6214073;23;20000;-70
2023/03/06 03:33:08;;;;;;;0.40;0.30;;;13.90;52.20;;;;;;6213935;23;20005;-70
2023/03/06 03:35:34;;;;;;;0.85;0.50;;;13.90;52.80;;;;;;6214354;23;20023;-71
2023/03/06 03:38:01;;;;;;;0.50;0.35;;;13.90;52.10;;;;;;6214059;23;19997;-70
2023/03/06 03:40:27;;;;;;;1.00;0.55;;;13.90;52.10;;;;;;6214278;23;19997;-70
2023/03/06 03:42:53;;;;;;;0.90;0.30;;;13.90;52.00;;;;;;6214114;23;20004;-70
2023/03/06 03:45:19;;;;;;;0.30;0.30;;;13.80;52.10;;;;;;6213953;23;20016;-71
2023/03/06 03:47:45;;;;;;;0.30;0.30;;;13.80;52.20;;;;;;6213991;23;20071;-70
2023/03/06 03:50:11;;;;;;;0.40;0.30;;;13.80;52.10;;;;;;6214151;23;20008;-70
2023/03/06 03:52:37;;;;;;;0.40;0.30;;;13.80;52.10;;;;;;6215102;23;20004;-71
2023/03/06 03:55:04;;;;;;;0.68;0.38;;;13.80;52.10;;;;;;6216231;23;20020;-71
2023/03/06 03:57:30;;;;;;;0.90;0.30;;;13.80;52.10;;;;;;6215936;23;19997;-71
2023/03/06 03:59:56;;;;;;;1.23;0.30;;;13.80;52.80;;;;;;6216272;23;20043;-71
2023/03/06 04:02:22;;;;;;;1.20;0.52;;;13.80;52.20;;;;;;6216245;23;20017;-71
2023/03/06 04:04:48;;;;;;;1.25;0.40;;;13.70;52.20;;;;;;6216538;23;20004;-71
2023/03/06 04:07:14;;;;;;;2.05;0.50;;;13.70;52.10;;;;;;6216216;23;20238;-71
2023/03/06 04:09:40;;;;;;;0.32;0.32;;;13.70;52.10;;;;;;6225846;23;20544;-71
2023/03/06 04:12:06;;;;;;;0.40;0.30;;;13.70;52.00;;;;;;6215942;23;20213;-70
2023/03/06 04:14:32;;;;;;;0.98;0.38;;;13.70;52.10;;;;;;6216064;23;20020;-71
2023/03/06 04:16:58;;;;;;;0.60;0.30;;;13.70;52.00;;;;;;6225815;23;19996;-70
2023/03/06 04:19:23;;;;;;;0.40;0.20;;;13.70;52.10;;;;;;6225769;23;20000;-71
2023/03/06 04:21:49;;;;;;;0.85;0.40;;;13.70;52.10;;;;;;6225272;23;20012;-71
2023/03/06 04:24:14;;;;;;;0.85;0.40;;;13.70;52.10;;;;;;6225679;23;20375;-71
2023/03/06 04:26:40;;;;;;;0.75;0.75;;;13.70;52.00;;;;;;6225606;23;20000;-71
2023/03/06 04:29:06;;;;;;;0.65;0.35;;;13.60;52.00;;;;;;6215848;23;20000;-71
2023/03/06 04:31:32;;;;;;;0.95;0.32;;;13.70;52.10;;;;;;6215803;23;20422;-71
2023/03/06 04:33:57;;;;;;;0.75;0.25;;;13.60;52.10;;;;;;6216226;23;20072;-71
2023/03/06 04:36:29;;;;;;;1.58;0.28;;;13.60;52.20;;;;;;6225706;23;20000;-70
2023/03/06 04:38:55;;;;;;;0.90;0.40;;;13.60;52.10;;;;;;6225546;23;20340;-71
2023/03/06 04:41:22;;;;;;;1.10;0.30;;;13.70;52.10;;;;;;6225693;23;19992;-71
2023/03/06 04:43:47;;;;;;;0.40;0.30;;;13.70;52.10;;;;;;6225519;23;20486;-71
2023/03/06 04:46:13;;;;;;;0.32;0.30;;;13.70;52.00;;;;;;6225490;23;20020;-71
2023/03/06 04:48:39;;;;;;;1.50;0.30;;;13.70;52.00;;;;;;6225577;23;20088;-71
2023/03/06 04:51:05;;;;;;;0.60;0.30;;;13.70;51.90;;;;;;6225415;23;20386;-71
2023/03/06 04:53:33;;;;;;;1.40;0.50;;;13.70;51.90;;;;;;6225374;23;20382;-71
2023/03/06 04:55:59;;;;;;;0.65;0.55;;;13.70;52.00;;;;;;6225538;23;20079;-71
2023/03/06 04:58:25;;;;;;;0.22;0.22;;;13.70;51.90;;;;;;6215682;23;20029;-71
2023/03/06 05:07:41;;;;;;;0.68;0.40;;;13.70;52.00;;;;;;6225284;23;20035;-70
2023/03/06 05:10:13;;;;;;;0.40;0.20;;;13.70;52.00;;;;;;6215531;23;20004;-70
2023/03/06 05:12:39;;;;;;;1.10;0.30;;;13.70;51.90;;;;;;6215469;23;20008;-71
2023/03/06 05:15:06;;;;;;;1.05;0.40;;;13.70;51.90;;;;;;6215211;23;20327;-71
2023/03/06 05:17:32;;;;;;;0.70;0.40;;;13.70;52.30;;;;;;6215539;23;20076;-71
2023/03/06 05:19:58;;;;;;;0.30;0.20;;;13.60;51.90;;;;;;6215648;23;20000;-71
2023/03/06 05:22:24;;;;;;;0.75;0.28;;;13.60;51.90;;;;;;6215445;23;20000;-71
2023/03/06 05:24:51;;;;;;;0.30;0.20;;;13.60;51.90;;;;;;6215418;23;20018;-71
2023/03/06 05:27:17;;;;;;;0.52;0.30;;;13.70;51.90;;;;;;6215074;23;20068;-71
2023/03/06 05:29:43;;;;;;;0.82;0.40;;;13.70;51.90;;;;;;6215311;23;20016;-71
2023/03/06 05:32:09;;;;;;;0.30;0.30;;;13.60;51.90;;;;;;6215365;23;20055;-71
2023/03/06 05:34:34;;;;;;;1.48;0.35;;;13.60;52.00;;;;;;6225073;23;20375;-72
2023/03/06 05:37:00;;;;;;;0.35;0.30;;;13.60;52.00;;;;;;6225065;23;19996;-72
2023/03/06 05:39:29;;;;;;;0.88;0.45;;;13.60;52.00;;;;;;6225094;23;19993;-72
2023/03/06 05:41:55;;;;;;;0.30;0.25;;;13.60;51.90;;;;;;6224946;23;20439;-72
2023/03/06 05:44:22;;;;;;;0.50;0.28;;;13.60;52.00;;;;;;6223519;23;20067;-72
2023/03/06 05:46:49;;;;;;;0.30;0.30;;;13.60;52.00;;;;;;6224965;23;19997;-72
2023/03/06 05:49:14;;;;;;;0.80;0.40;;;13.40;51.90;;;;;;6225720;23;20003;-72
2023/03/06 05:51:40;;;;;;;1.00;0.40;;;13.60;52.00;;;;;;6224838;23;20339;-72
2023/03/06 05:54:05;;;;;;;0.70;0.30;;;13.60;52.00;;;;;;6215274;23;20373;-72
2023/03/06 05:56:31;;;;;;;0.98;0.38;;;13.60;51.90;;;;;;6224979;23;20329;-71
2023/03/06 05:58:57;;;;;;;0.95;0.32;;;13.60;51.90;;;;;;6224777;23;19992;-71
2023/03/06 06:01:24;;;;;;;0.52;0.20;;;13.50;60.60;;;;;;6224735;23;20404;-71
2023/03/06 06:03:50;;;;;;;0.57;0.28;;;13.60;52.00;;;;;;6224628;23;20092;-71
2023/03/06 06:06:15;;;;;;;1.80;0.30;;;13.60;51.90;;;;;;6224737;23;20024;-71
2023/03/06 06:08:41;;;;;;;0.40;0.40;;;13.60;52.00;;;;;;6224720;23;19996;-71
2023/03/06 06:11:10;;;;;;;2.03;0.30;;;13.60;52.00;;;;;;6224688;23;20000;-71
2023/03/06 06:13:37;;;;;;;0.32;0.30;;;13.60;52.00;;;;;;6224635;23;20015;-71
2023/03/06 06:16:07;;;;;;;0.50;0.30;;;13.50;52.10;;;;;;6224386;23;20003;-71
2023/03/06 06:18:32;;;;;;;13.45;0.73;;;13.50;52.10;;;;;;6224798;23;20024;-71
2023/03/06 06:20:58;;;;;;;33.53;1.98;;;13.50;52.10;;;;;;6224597;23;20054;-70
2023/03/06 06:23:24;;;;;;;36.28;2.20;;;13.50;52.10;;;;;;6224592;23;20335;-70
2023/03/06 06:25:50;;;;;;;20.50;1.42;;;13.50;52.20;;;;;;6224550;23;20000;-71
2023/03/06 06:28:15;;;;;;;29.52;2.40;;;13.50;52.30;;;;;;6229419;23;20021;-71
2023/03/06 06:30:41;;;;;;;24.55;2.30;;;13.50;52.30;;;;;;6227281;23;20288;-72
2023/03/06 06:33:08;;;;;;;22.15;2.08;;;13.40;52.40;;;;;;6214790;23;20043;-71
2023/03/06 06:35:36;;;;;;;16.90;1.98;;;13.40;52.30;;;;;;6224585;23;20004;-71
2023/03/06 06:38:02;;;;;;;13.20;1.58;;;13.40;52.30;;;;;;6224524;23;20337;-71
2023/03/06 06:40:28;;;;;;;20.20;1.73;;;13.40;52.40;;;;;;6224542;23;20024;-71
2023/03/06 06:42:54;;;;;;;22.20;2.15;;;13.40;52.60;;;;;;6214691;23;20004;-71
2023/03/06 06:45:19;;;;;;;19.05;2.05;;;13.40;52.70;;;;;;6223120;23;19993;-72
2023/03/06 06:47:48;;;;;;;13.20;1.70;;;13.30;52.80;;;;;;6224514;23;20416;-72
2023/03/06 06:50:14;;;;;;;12.43;1.33;;;13.40;52.70;;;;;;6224449;23;20076;-72
2023/03/06 06:52:39;;;;;;;13.50;1.38;;;13.40;52.70;;;;;;6224352;23;20043;-72
2023/03/06 06:55:06;;;;;;;7.80;1.33;;;13.40;52.50;;;;;;6224478;23;20063;-72
2023/03/06 06:57:31;;;;;;;9.27;1.63;;;13.50;52.40;;;;;;6224366;23;20482;-72
2023/03/06 06:59:57;;;;;;;7.53;1.00;;;13.50;52.40;;;;;;6224287;23;20070;-71
2023/03/06 07:02:22;;;;;;;8.35;1.30;;;13.50;53.10;;;;;;6224052;23;20096;-71
2023/03/06 07:04:48;;;;;;;4.03;0.68;;;13.50;52.60;;;;;;6224304;23;20000;-71
2023/03/06 07:07:14;;;;;;;4.05;0.68;;;13.40;52.50;;;;;;6224186;23;19996;-70
2023/03/06 07:09:40;;;;;;;9.70;1.50;;;13.50;52.60;;;;;;6214304;23;20446;-71
2023/03/06 07:12:07;;;;;;;3.38;0.82;;;13.50;52.60;;;;;;6214127;23;20004;-71
2023/03/06 07:14:34;;;;;;;6.63;1.08;;;13.50;52.70;;;;;;6214683;23;19997;-72
2023/03/06 07:17:01;;;;;;;4.65;0.73;;;13.50;52.70;;;;;;6214176;23;20074;-71
2023/03/06 07:19:27;;;;;;;4.55;0.95;;;13.50;52.90;;;;;;6214481;23;20063;-71
2023/03/06 07:21:53;;;;;;;3.85;0.93;;;13.50;52.80;;;;;;6212977;23;20319;-71
2023/03/06 07:24:19;;;;;;;5.97;0.98;;;13.50;52.80;;;;;;6214085;23;20000;-71
2023/03/06 07:26:48;;;;;;;3.63;1.10;;;13.50;53.00;;;;;;6214947;23;19993;-71
2023/03/06 07:29:14;;;;;;;2.45;0.93;;;13.50;53.00;;;;;;6216528;23;20012;-73
2023/03/06 07:31:40;;;;;;;5.03;0.90;;;13.50;53.20;;;;;;6215027;23;20001;-72
2023/03/06 07:34:06;;;;;;;6.53;1.15;;;13.50;53.30;;;;;;6224699;23;20428;-73
2023/03/06 07:36:33;;;;;;;7.90;0.93;;;13.50;53.40;;;;;;6226240;23;20378;-72
2023/03/06 07:38:59;;;;;;;3.20;1.05;;;13.50;53.80;;;;;;6226280;23;20335;-72
2023/03/06 07:41:24;;;;;;;2.03;1.00;;;13.50;53.30;;;;;;6226578;23;20071;-72
2023/03/06 07:43:50;;;;;;;5.80;1.38;;;13.50;54.00;;;;;;6226101;23;20442;-72
2023/03/06 07:46:16;;;;;;;2.33;1.00;;;13.50;53.40;;;;;;6226186;23;19992;-72
2023/03/06 07:48:41;;;;;;;2.92;1.25;;;13.50;53.40;;;;;;6226146;23;19997;-72
2023/03/06 07:51:18;;;;;;;1.40;0.90;;;13.60;53.50;;;;;;6226067;23;20428;-71
2023/03/06 07:53:44;;;;;;;3.45;1.05;;;13.60;53.60;;;;;;6226220;23;20038;-71
2023/03/06 07:56:10;;;;;;;1.85;0.68;;;13.60;53.60;;;;;;6225939;23;19996;-71
2023/03/06 07:58:37;;;;;;;1.75;0.70;;;13.60;53.50;;;;;;6214413;23;20466;-71
2023/03/06 08:01:11;;;;;;;2.50;1.05;;;13.70;53.60;;;;;;6226073;23;20064;-71
2023/03/06 08:03:40;;;;;;;1.95;0.60;;;13.70;53.60;;;;;;6225876;23;20016;-72
2023/03/06 08:06:17;;;;;;;3.22;0.70;;;14.90;54.20;;;;;;6225993;23;19993;-71
2023/03/06 08:08:44;;;;;;;1.30;0.60;;;13.70;53.60;;;;;;6226010;23;20328;-71
2023/03/06 08:11:12;;;;;;;1.33;0.40;;;13.70;53.60;;;;;;6225875;23;20067;-71
2023/03/06 08:13:38;;;;;;;1.80;0.75;;;13.80;53.60;;;;;;6225696;23;20019;-71
2023/03/06 08:16:04;;;;;;;1.83;0.55;;;13.80;53.90;;;;;;6225833;23;19996;-71
2023/03/06 08:18:30;;;;;;;2.90;0.75;;;13.80;53.90;;;;;;6225831;23;20015;-72
2023/03/06 08:21:04;;;;;;;0.50;0.50;;;13.80;53.80;;;;;;6225802;23;20020;-71
2023/03/06 08:23:29;;;;;;;1.88;0.52;;;13.80;53.90;;;;;;6215732;23;20047;-72
2023/03/06 08:25:57;;;;;;;0.65;0.45;;;13.80;53.70;;;;;;6225769;23;20382;-72
2023/03/06 08:28:23;;;;;;;1.20;0.47;;;13.80;53.70;;;;;;6225678;23;20007;-72
2023/03/06 08:30:48;;;;;;;2.00;0.60;;;13.80;53.90;;;;;;6216057;23;20376;-72
2023/03/06 08:33:14;;;;;;;1.20;0.80;;;13.80;53.90;;;;;;6225685;23;20044;-72
2023/03/06 08:35:39;;;;;;;1.20;0.80;;;13.80;53.80;;;;;;6216088;23;19996;-72
2023/03/06 08:38:05;;;;;;;1.33;0.77;;;13.90;53.90;;;;;;6215326;23;20034;-73
2023/03/06 08:40:31;;;;;;;0.75;0.52;;;13.90;53.80;;;;;;6221741;23;19997;-72
2023/03/06 08:42:57;;;;;;;1.23;0.70;;;13.90;53.80;;;;;;6218271;23;20320;-72
2023/03/06 08:45:23;;;;;;;1.27;0.43;;;13.90;53.90;;;;;;6215451;23;19997;-73
2023/03/06 08:47:49;;;;;;;1.25;0.60;;;13.90;53.90;;;;;;6215863;23;20076;-73
2023/03/06 08:50:16;;;;;;;1.27;0.50;;;14.00;54.70;;;;;;6215513;23;20023;-76
2023/03/06 08:52:42;;;;;;;0.55;0.40;;;14.00;53.90;;;;;;6215350;23;20008;-72
2023/03/06 08:55:08;;;;;;;1.35;0.60;;;14.00;54.00;;;;;;6215854;23;20012;-73
2023/03/06 08:57:34;;;;;;;0.70;0.50;;;14.10;54.00;;;;;;6215761;23;19997;-72
2023/03/06 09:00:00;;;;;;;0.80;0.50;;;14.10;54.00;;;;;;6215542;23;20016;-74
2023/03/06 09:02:26;;;;;;;0.52;0.40;;;14.10;53.90;;;;;;6215252;23;20019;-73
2023/03/06 09:04:52;;;;;;;1.17;0.30;;;14.10;54.00;;;;;;6215733;23;20000;-73
2023/03/06 09:07:18;;;;;;;1.20;0.30;;;14.10;54.00;;;;;;6215716;23;20024;-74
2023/03/06 09:09:44;;;;;;;1.15;0.47;;;14.20;54.10;;;;;;6215360;23;19993;-72
2023/03/06 09:12:10;;;;;;;0.75;0.50;;;14.20;54.00;;;;;;6215661;23;20019;-73
2023/03/06 09:14:36;;;;;;;1.23;0.40;;;14.20;54.00;;;;;;6215656;23;20016;-73
2023/03/06 09:17:03;;;;;;;1.08;0.60;;;14.20;54.00;;;;;;6215754;23;20000;-70
2023/03/06 09:19:29;;;;;;;1.45;0.82;;;14.20;54.00;;;;;;6215640;23;20024;-73
2023/03/06 09:21:56;;;;;;;1.52;0.50;;;14.20;54.10;;;;;;6215232;23;20003;-73
2023/03/06 09:24:22;;;;;;;1.15;0.52;;;14.20;54.00;;;;;;6215581;23;19996;-73
2023/03/06 09:26:48;;;;;;;0.70;0.40;;;14.20;54.60;;;;;;6215014;23;20042;-73
2023/03/06 09:29:15;;;;;;;0.95;0.32;;;14.30;54.00;;;;;;6215486;23;20079;-73
2023/03/06 09:31:42;;;;;;;1.00;0.50;;;14.30;54.10;;;;;;6215369;23;20031;-74
2023/03/06 09:34:08;;;;;;;0.93;0.45;;;14.30;54.10;;;;;;6215141;23;20416;-74
2023/03/06 09:36:33;;;;;;;0.55;0.30;;;14.30;54.10;;;;;;6225158;23;19999;-71
2023/03/06 09:38:59;;;;;;;1.13;0.52;;;14.30;54.10;;;;;;6225189;23;20019;-72
2023/03/06 09:41:36;;;;;;;0.60;0.50;;;14.30;54.10;;;;;;6225273;23;20454;-72
2023/03/06 09:44:04;;;;;;;0.68;0.40;;;14.30;54.00;;;;;;6215459;23;20052;-71
2023/03/06 09:46:46;;;;;;;0.52;0.47;;;14.30;54.00;;;;;;6225153;23;20059;-71
2023/03/06 09:49:33;;;;;;;0.57;0.40;;;14.30;54.00;;;;;;6214726;23;20019;-71
2023/03/06 09:52:08;;;;;;;1.35;0.50;;;14.30;54.00;;;;;;6224878;23;20329;-75
2023/03/06 09:54:50;;;;;;;2.70;0.52;;;14.40;54.10;;;;;;6225147;23;20000;-72
2023/03/06 09:57:21;;;;;;;0.88;0.52;;;14.40;54.10;;;;;;6225124;23;20323;-72
2023/03/06 09:59:52;;;;;;;0.60;0.35;;;14.40;54.20;;;;;;6215233;23;20000;-72
2023/03/06 10:02:27;;;;;;;0.70;0.70;;;14.40;54.20;;;;;;6224725;23;20532;-72
2023/03/06 10:04:59;;;;;;;1.40;0.30;;;14.40;54.20;;;;;;6224992;23;20007;-72
2023/03/06 10:07:40;;;;;;;0.82;0.40;;;14.40;54.20;;;;;;6225061;23;20003;-72
2023/03/06 10:10:15;;;;;;;0.45;0.35;;;14.50;54.80;;;;;;6215195;23;20062;-71
2023/03/06 10:12:47;;;;;;;0.40;0.30;;;14.40;54.10;;;;;;6224801;23;20008;-72
2023/03/06 10:15:24;;;;;;;0.43;0.40;;;14.40;54.10;;;;;;6225295;23;19997;-72
2023/03/06 10:17:50;;;;;;;0.50;0.50;;;14.50;54.20;;;;;;6224794;23;20468;-72
2023/03/06 10:20:25;;;;;;;0.95;0.38;;;14.50;54.20;;;;;;6224938;23;19992;-72
2023/03/06 10:23:08;;;;;;;0.90;0.40;;;14.50;54.20;;;;;;6224882;23;20479;-72
2023/03/06 10:25:55;;;;;;;0.90;0.55;;;14.50;54.20;;;;;;6224900;23;19996;-72
2023/03/06 10:28:41;;;;;;;2.40;0.40;;;14.50;54.20;;;;;;6225272;23;20000;-72
2023/03/06 10:31:15;;;;;;;0.88;0.30;;;14.50;54.20;;;;;;6224895;23;20076;-72
2023/03/06 10:33:54;;;;;;;1.48;0.30;;;14.50;54.20;;;;;;6215085;23;20058;-71
2023/03/06 10:36:25;;;;;;;0.52;0.30;;;14.50;54.20;;;;;;6224804;23;20379;-72
2023/03/06 10:38:52;;;;;;;0.60;0.50;;;14.50;54.20;;;;;;6214691;23;20079;-71
2023/03/06 10:41:24;;;;;;;1.05;0.63;;;14.50;54.20;;;;;;6214689;23;20062;-71
2023/03/06 10:44:21;;;;;;;0.65;0.60;;;14.50;54.20;;;;;;6214898;23;20050;-71
2023/03/06 10:46:50;;;;;;;0.43;0.38;;;14.50;54.20;;;;;;6213740;23;20059;-71
2023/03/06 10:49:36;;;;;;;0.77;0.60;;;14.50;54.20;;;;;;6224720;23;20070;-72
2023/03/06 10:52:13;;;;;;;0.80;0.50;;;14.60;54.20;;;;;;6214942;23;20394;-72
2023/03/06 10:54:41;;;;;;;0.60;0.40;;;14.50;54.10;;;;;;6224562;23;20399;-71
2023/03/06 10:57:24;;;;;;;0.93;0.43;;;14.50;54.10;;;;;;6224583;23;20055;-71
2023/03/06 10:59:53;;;;;;;0.30;0.30;;;14.60;54.10;;;;;;6224587;23;20060;-71
2023/03/06 11:02:39;;;;;;;1.13;0.60;;;14.60;54.70;;;;;;6214052;23;20022;-72
2023/03/06 11:05:17;;;;;;;0.70;0.60;;;14.60;54.00;;;;;;6224592;23;19996;-71
2023/03/06 11:07:59;;;;;;;0.93;0.50;;;14.70;54.00;;;;;;6214432;23;20443;-75
2023/03/06 11:10:26;;;;;;;0.77;0.60;;;14.70;53.90;;;;;;6224677;23;20023;-71
2023/03/06 11:12:59;;;;;;;0.52;0.50;;;14.70;53.90;;;;;;6214213;23;20013;-71
2023/03/06 11:15:26;;;;;;;0.70;0.43;;;14.70;53.90;;;;;;6224596;23;19997;-71
2023/03/06 11:18:03;;;;;;;1.00;0.40;;;14.70;53.90;;;;;;6224552;23;20309;-71
2023/03/06 11:20:31;;;;;;;0.80;0.60;;;14.70;53.90;;;;;;6214851;23;20012;-71
2023/03/06 11:23:06;;;;;;;0.60;0.40;;;14.70;53.80;;;;;;6224421;23;20012;-71
2023/03/06 11:25:38;;;;;;;0.73;0.60;;;14.70;53.90;;;;;;6224591;23;20335;-72
2023/03/06 11:28:32;;;;;;;0.60;0.47;;;14.70;53.90;;;;;;6224625;23;19997;-71
2023/03/06 11:31:15;;;;;;;0.82;0.80;;;14.70;53.90;;;;;;6224462;23;20007;-72
2023/03/06 11:33:59;;;;;;;0.57;0.50;;;14.80;53.90;;;;;;6224382;23;20439;-71
2023/03/06 11:36:40;;;;;;;0.50;0.50;;;14.70;54.00;;;;;;6214683;23;20000;-72
2023/03/06 11:39:41;;;;;;;1.30;0.52;;;14.70;54.10;;;;;;6214591;23;20000;-72
2023/03/06 11:42:22;;;;;;;1.48;0.50;;;14.80;54.10;;;;;;6211262;23;20021;-72
2023/03/06 11:45:23;;;;;;;0.75;0.68;;;14.80;54.10;;;;;;6214260;23;20008;-71
2023/03/06 11:48:14;;;;;;;1.17;0.60;;;14.80;53.90;;;;;;6203286;23;20027;-72
2023/03/06 11:50:51;;;;;;;1.58;0.70;;;14.80;53.90;;;;;;6214194;23;20055;-72
2023/03/06 11:53:36;;;;;;;0.88;0.45;;;14.90;54.00;;;;;;6224146;23;20088;-72
2023/03/06 11:56:31;;;;;;;0.82;0.57;;;14.90;54.00;;;;;;6214462;23;19997;-71
2023/03/06 11:59:13;;;;;;;1.05;0.70;;;14.90;54.00;;;;;;6224322;23;20067;-72
2023/03/06 12:01:42;;;;;;;3.10;0.80;;;14.90;53.90;;;;;;6214264;23;20007;-71
2023/03/06 12:04:39;;;;;;;0.77;0.60;;;14.90;53.80;;;;;;6214431;23;20009;-72
2023/03/06 12:07:26;;;;;;;1.02;0.80;;;15.00;53.80;;;;;;6214060;23;20001;-72
2023/03/06 12:09:58;;;;;;;0.73;0.50;;;15.00;53.70;;;;;;6214461;23;20001;-73
2023/03/06 12:12:36;;;;;;;1.25;0.70;;;15.10;53.60;;;;;;6214508;23;20361;-73
2023/03/06 12:15:26;;;;;;;0.63;0.45;;;15.10;53.40;;;;;;6216117;23;20072;-73
2023/03/06 12:18:16;;;;;;;1.27;0.75;;;15.10;53.40;;;;;;6215953;23;20384;-73
2023/03/06 12:20:56;;;;;;;0.40;0.30;;;15.10;53.40;;;;;;6214471;23;20271;-73
2023/03/06 12:23:41;;;;;;;1.52;0.80;;;15.10;53.50;;;;;;6225807;23;19992;-72
2023/03/06 12:26:43;;;;;;;0.93;0.77;;;15.10;53.50;;;;;;6215705;23;20506;-72
2023/03/06 12:29:17;;;;;;;2.85;0.80;;;15.10;53.50;;;;;;6215777;23;20076;-72
2023/03/06 12:32:13;;;;;;;0.63;0.60;;;15.10;53.50;;;;;;6215711;23;20016;-72
2023/03/06 12:35:00;;;;;;;2.33;0.85;;;15.10;53.60;;;;;;6215820;23;20028;-72
2023/03/06 12:37:41;;;;;;;1.13;0.80;;;15.10;53.50;;;;;;6216014;23;20008;-72
2023/03/06 12:40:44;;;;;;;0.60;0.47;;;15.10;53.50;;;;;;6216117;23;20005;-72
2023/03/06 12:43:17;;;;;;;0.60;0.60;;;15.10;53.50;;;;;;6216036;23;20008;-72
2023/03/06 12:45:45;;;;;;;1.10;1.00;;;15.10;53.40;;;;;;6215651;23;20001;-72
2023/03/06 12:48:24;;;;;;;1.08;0.70;;;15.10;53.40;;;;;;6215568;23;19993;-72
2023/03/06 12:50:51;;;;;;;1.37;0.80;;;15.10;53.40;;;;;;6216038;23;20054;-72
2023/03/06 12:53:28;;;;;;;1.27;0.90;;;15.10;53.20;;;;;;6215673;23;20035;-72
2023/03/06 12:55:56;;;;;;;1.40;1.30;;;15.20;53.10;;;;;;6215603;23;20003;-73
2023/03/06 12:58:28;;;;;;;3.03;1.10;;;15.20;53.10;;;;;;6215675;23;20060;-73
2023/03/06 13:01:31;;;;;;;2.00;1.38;;;15.20;53.10;;;;;;6215520;23;20004;-72
2023/03/06 13:04:16;;;;;;;0.95;0.85;;;15.20;52.90;;;;;;6215363;23;20009;-73
2023/03/06 13:06:54;;;;;;;1.15;0.60;;;15.20;53.00;;;;;;6215801;23;20001;-73